createdAt,value
2022-08-10T00:00:31.093Z,1.1
2022-08-10T00:01:31.809Z,1.1
2022-08-10T00:02:32.206Z,1.1
2022-08-10T00:03:32.541Z,1.3
2022-08-10T00:04:32.869Z,1
2022-08-10T00:05:43.546Z,1
2022-08-10T00:06:34.910Z,1
2022-08-10T00:07:35.538Z,0.9
2022-08-10T00:08:35.861Z,1
2022-08-10T00:09:50.034Z,1.1
2022-08-10T00:10:38.841Z,0.9
2022-08-10T00:11:39.043Z,1
2022-08-10T00:12:54.617Z,1.1
2022-08-10T00:13:42.534Z,0.9
2022-08-10T00:14:43.181Z,0.9
2022-08-10T00:15:52.245Z,1
2022-08-10T00:16:46.151Z,1
2022-08-10T00:17:46.369Z,0.9
2022-08-10T00:18:46.681Z,0.9
2022-08-10T00:20:02.660Z,0.9
2022-08-10T00:20:52.131Z,0.8
2022-08-10T00:21:52.430Z,0.8
2022-08-10T00:22:57.507Z,0.9
2022-08-10T00:23:55.634Z,1
2022-08-10T00:24:56.029Z,1
2022-08-10T00:25:56.566Z,0.9
2022-08-10T00:27:52.007Z,0.9
2022-08-10T00:28:03.749Z,0.9
2022-08-10T00:29:01.783Z,1
2022-08-10T00:30:02.318Z,0.8
2022-08-10T00:31:02.421Z,0.7
2022-08-10T00:32:03.458Z,1
2022-08-10T00:33:03.667Z,1.3
2022-08-10T00:34:03.967Z,0.9
2022-08-10T00:35:04.908Z,1
2022-08-10T00:36:05.109Z,1
2022-08-10T00:37:05.130Z,0.9
2022-08-10T00:38:05.539Z,0.9
2022-08-10T00:39:05.795Z,1.2
2022-08-10T00:40:07.570Z,1
2022-08-10T00:41:06.789Z,1.1
2022-08-10T00:42:08.530Z,0.9
2022-08-10T00:43:07.923Z,1
2022-08-10T00:44:07.940Z,0.9
2022-08-10T00:45:08.978Z,0.9
2022-08-10T00:46:08.671Z,0.9
2022-08-10T00:47:35.548Z,0.9
2022-08-10T00:48:12.762Z,1
2022-08-10T00:49:13.394Z,1.1
2022-08-10T00:50:13.563Z,1.1
2022-08-10T00:51:15.055Z,1
2022-08-10T00:52:15.981Z,1.4
2022-08-10T00:53:15.270Z,1
2022-08-10T00:54:24.739Z,1.1
2022-08-10T00:55:19.064Z,1.1
2022-08-10T00:57:14.399Z,1.1
2022-08-10T00:57:21.137Z,1.2
2022-08-10T00:58:21.438Z,1.2
2022-08-10T00:59:21.454Z,1.3
2022-08-10T01:00:21.772Z,0.9
2022-08-10T01:02:10.133Z,1
2022-08-10T01:02:24.486Z,0.9
2022-08-10T01:04:39.527Z,0.8
2022-08-10T01:04:54.577Z,1.2
2022-08-10T01:05:30.095Z,0.9
2022-08-10T01:30:47.245Z,0.9
2022-08-10T01:31:53.361Z,1
2022-08-10T01:39:09.407Z,0.8
2022-08-10T01:40:10.755Z,0.9
2022-08-10T01:42:18.752Z,1.1
2022-08-10T01:43:19.687Z,0.9
2022-08-10T01:44:23.986Z,1
2022-08-10T01:45:24.713Z,0.9
2022-08-10T01:46:24.416Z,0.7
2022-08-10T01:47:27.809Z,1.1
2022-08-10T01:48:30.785Z,1.1
2022-08-10T01:49:31.083Z,0.8
2022-08-10T01:52:35.698Z,0.9
2022-08-10T01:54:39.206Z,1
2022-08-10T01:55:38.906Z,1
2022-08-10T01:56:40.856Z,1
2022-08-10T01:57:41.081Z,0.8
2022-08-10T01:58:39.773Z,0.9
2022-08-10T01:59:42.117Z,1
2022-08-10T02:00:44.369Z,1.1
2022-08-10T02:01:51.952Z,1.1
2022-08-10T02:02:47.148Z,1.1
2022-08-10T02:04:01.257Z,1.2
2022-08-10T02:04:51.161Z,1.1
2022-08-10T02:06:53.315Z,1
2022-08-10T02:07:52.504Z,1.1
2022-08-10T02:09:06.701Z,1.1
2022-08-10T02:09:59.180Z,1.2
2022-08-10T02:10:58.680Z,1
2022-08-10T02:12:07.321Z,1.1
2022-08-10T02:13:01.858Z,0.9
2022-08-10T02:14:02.779Z,1.1
2022-08-10T02:15:11.718Z,1.1
2022-08-10T02:16:06.810Z,1.3
2022-08-10T02:17:58.006Z,1
2022-08-10T02:18:08.642Z,1.3
2022-08-10T02:19:08.549Z,1
2022-08-10T02:20:15.429Z,1
2022-08-10T02:21:14.299Z,0.9
2022-08-10T02:22:38.374Z,0.9
2022-08-10T02:24:16.898Z,0.9
2022-08-10T02:25:42.122Z,1.5
2022-08-10T02:26:19.534Z,1.2
2022-08-10T02:27:23.037Z,1.2
2022-08-10T02:28:29.917Z,1.1
2022-08-10T02:29:25.537Z,1.4
2022-08-10T02:30:24.396Z,1.2
2022-08-10T02:31:25.829Z,1.1
2022-08-10T02:32:36.069Z,1
2022-08-10T02:33:30.756Z,0.9
2022-08-10T02:34:30.666Z,1.1
2022-08-10T02:35:42.140Z,0.9
2022-08-10T02:36:36.744Z,0.9
2022-08-10T02:37:37.456Z,1
2022-08-10T02:39:39.099Z,0.9
2022-08-10T02:48:07.518Z,0.9
2022-08-10T02:49:07.213Z,1
2022-08-10T02:51:14.299Z,1.2
2022-08-10T03:00:34.229Z,1
2022-08-10T03:03:40.918Z,1
2022-08-10T03:05:43.869Z,0.9
2022-08-10T03:08:47.579Z,0.9
2022-08-10T03:09:48.308Z,0.8
2022-08-10T03:10:49.450Z,0.9
2022-08-10T03:12:36.157Z,1
2022-08-10T03:13:59.957Z,1.2
2022-08-10T03:14:58.778Z,1.5
2022-08-10T03:16:00.020Z,1.4
2022-08-10T03:17:01.567Z,1.5
2022-08-10T03:18:00.955Z,1.5
2022-08-10T03:19:02.508Z,1.8
2022-08-10T03:20:33.659Z,1.4
2022-08-10T03:21:11.339Z,1.6
2022-08-10T03:22:10.510Z,1.4
2022-08-10T03:24:30.470Z,1.3
2022-08-10T03:25:15.021Z,1.3
2022-08-10T03:26:19.985Z,1.4
2022-08-10T03:27:19.136Z,1.4
2022-08-10T03:28:21.300Z,1.3
2022-08-10T03:29:20.388Z,1.5
2022-08-10T03:30:31.891Z,1.2
2022-08-10T03:31:21.602Z,1.4
2022-08-10T03:32:23.680Z,1.2
2022-08-10T03:33:24.515Z,1.4
2022-08-10T03:34:33.283Z,1.3
2022-08-10T03:35:27.384Z,1.3
2022-08-10T03:36:42.830Z,2.6
2022-08-10T03:37:27.515Z,1.8
2022-08-10T03:38:28.733Z,1.1
2022-08-10T03:39:28.455Z,1
2022-08-10T03:40:44.819Z,1
2022-08-10T03:42:33.676Z,1
2022-08-10T03:43:33.570Z,1.1
2022-08-10T03:44:35.629Z,1.5
2022-08-10T03:45:41.768Z,1.2
2022-08-10T03:46:41.783Z,1.3
2022-08-10T03:47:42.919Z,1.3
2022-08-10T03:48:49.248Z,1.4
2022-08-10T03:49:44.073Z,1.2
2022-08-10T03:50:51.534Z,1.5
2022-08-10T03:51:46.536Z,1.6
2022-08-10T03:52:45.531Z,2.1
2022-08-10T03:54:03.228Z,2
2022-08-10T03:54:49.520Z,1.8
2022-08-10T03:56:29.506Z,1.9
2022-08-10T03:56:52.723Z,2.1
2022-08-10T03:57:52.915Z,2.3
2022-08-10T03:58:53.344Z,2
2022-08-10T03:59:53.823Z,2.2
2022-08-10T04:00:55.433Z,1.9
2022-08-10T04:02:52.198Z,2.3
2022-08-10T04:02:59.072Z,2.2
2022-08-10T04:04:11.542Z,2.4
2022-08-10T04:05:02.359Z,2.4
2022-08-10T04:06:02.717Z,2.1
2022-08-10T04:07:04.579Z,2.1
2022-08-10T04:08:04.251Z,2.3
2022-08-10T04:09:05.898Z,2.2
2022-08-10T04:10:07.135Z,2.1
2022-08-10T04:11:12.158Z,2.4
2022-08-10T04:12:11.137Z,2.3
2022-08-10T04:13:11.552Z,2.6
2022-08-10T04:14:47.385Z,2.5
2022-08-10T04:15:14.326Z,2.2
2022-08-10T04:16:14.641Z,2.2
2022-08-10T04:17:15.073Z,1.9
2022-08-10T04:18:15.579Z,1.9
2022-08-10T04:19:17.746Z,2
2022-08-10T04:22:25.649Z,3.2
2022-08-10T04:23:25.847Z,2.8
2022-08-10T04:24:29.957Z,2.4
2022-08-10T04:25:26.600Z,1.9
2022-08-10T04:26:25.878Z,2.4
2022-08-10T04:27:26.797Z,2.1
2022-08-10T04:28:27.128Z,2.3
2022-08-10T04:29:27.328Z,2.2
2022-08-10T04:30:28.978Z,2
2022-08-10T04:31:30.201Z,1.9
2022-08-10T04:32:28.988Z,2.1
2022-08-10T04:33:30.115Z,2.2
2022-08-10T04:34:31.247Z,2
2022-08-10T04:35:32.189Z,2.4
2022-08-10T04:36:31.055Z,2
2022-08-10T04:37:31.369Z,2
2022-08-10T04:38:34.158Z,2.4
2022-08-10T04:39:32.178Z,2.2
2022-08-10T04:40:32.133Z,3.5
2022-08-10T04:41:33.648Z,3.8
2022-08-10T04:42:33.157Z,3.9
2022-08-10T04:43:33.465Z,4
2022-08-10T04:44:34.188Z,4
2022-08-10T04:45:50.566Z,4
2022-08-10T04:46:42.665Z,3.9
2022-08-10T04:48:00.670Z,3.3
2022-08-10T04:48:59.611Z,3.6
2022-08-10T04:49:55.995Z,3.7
2022-08-10T04:50:54.611Z,4.4
2022-08-10T04:51:55.016Z,4.2
2022-08-10T04:52:55.440Z,4
2022-08-10T04:54:05.682Z,4.3
2022-08-10T04:54:59.645Z,4.5
2022-08-10T04:55:59.959Z,4
2022-08-10T04:57:00.473Z,4
2022-08-10T04:58:00.909Z,3.8
2022-08-10T04:59:01.612Z,4.4
2022-08-10T05:00:02.157Z,4.6
2022-08-10T05:01:06.358Z,4.1
2022-08-10T05:02:27.026Z,3.8
2022-08-10T05:03:09.530Z,4.5
2022-08-10T05:04:34.701Z,4.2
2022-08-10T05:05:12.412Z,4.1
2022-08-10T05:06:12.613Z,4.3
2022-08-10T05:07:16.477Z,4
2022-08-10T05:08:14.989Z,4.4
2022-08-10T05:09:15.207Z,3.6
2022-08-10T05:10:15.814Z,3.6
2022-08-10T05:11:24.139Z,3.6
2022-08-10T05:12:16.628Z,3.8
2022-08-10T05:13:17.168Z,4
2022-08-10T05:14:17.603Z,4.2
2022-08-10T05:15:18.219Z,4
2022-08-10T05:16:31.928Z,3.9
2022-08-10T05:17:20.881Z,3.9
2022-08-10T05:18:21.194Z,3.6
2022-08-10T05:20:01.687Z,3.8
2022-08-10T05:20:24.394Z,3.7
2022-08-10T05:22:03.207Z,4.1
2022-08-10T05:22:27.713Z,4.1
2022-08-10T05:23:27.947Z,3.7
2022-08-10T05:24:28.543Z,3.5
2022-08-10T05:25:29.048Z,3.8
2022-08-10T05:26:31.484Z,3.5
2022-08-10T05:27:31.012Z,3.4
2022-08-10T05:28:32.611Z,3.6
2022-08-10T05:29:33.256Z,3.2
2022-08-10T05:30:33.472Z,3.3
2022-08-10T05:31:33.697Z,3
2022-08-10T05:32:55.359Z,3.6
2022-08-10T05:33:37.866Z,3
2022-08-10T05:34:38.198Z,3.1
2022-08-10T05:35:55.554Z,3.1
2022-08-10T05:36:42.010Z,2.8
2022-08-10T05:38:10.340Z,2.4
2022-08-10T05:38:45.499Z,2.5
2022-08-10T05:39:46.413Z,2.7
2022-08-10T05:40:46.797Z,2.7
2022-08-10T05:41:49.860Z,2.5
2022-08-10T05:42:50.539Z,1.9
2022-08-10T05:43:51.050Z,2
2022-08-10T05:44:51.162Z,1.5
2022-08-10T05:46:19.266Z,1.7
2022-08-10T05:46:55.094Z,1.5
2022-08-10T05:48:55.571Z,1.4
2022-08-10T05:49:01.251Z,1.4
2022-08-10T05:49:59.291Z,1.4
2022-08-10T05:50:59.927Z,1.5
2022-08-10T05:52:00.441Z,1.2
2022-08-10T05:53:59.188Z,1.1
2022-08-10T05:54:06.515Z,1.2
2022-08-10T05:55:05.561Z,1.1
2022-08-10T05:56:07.931Z,1.1
2022-08-10T05:57:06.089Z,1.1
2022-08-10T05:58:06.100Z,0.9
2022-08-10T05:59:06.520Z,1.1
2022-08-10T06:00:36.340Z,0.9
2022-08-10T06:01:13.336Z,1
2022-08-10T06:02:33.866Z,0.9
2022-08-10T06:03:16.679Z,0.9
2022-08-10T06:04:22.327Z,0.9
2022-08-10T06:05:24.265Z,0.9
2022-08-10T06:06:24.987Z,1
2022-08-10T06:07:25.201Z,0.9
2022-08-10T06:08:28.484Z,1
2022-08-10T06:09:27.658Z,1
2022-08-10T06:10:33.034Z,1
2022-08-10T06:12:27.614Z,1
2022-08-10T06:12:30.629Z,1
2022-08-10T06:14:00.072Z,0.9
2022-08-10T06:14:29.865Z,0.9
2022-08-10T06:15:50.205Z,0.9
2022-08-10T06:16:32.957Z,0.8
2022-08-10T06:17:32.330Z,1
2022-08-10T06:18:33.169Z,1
2022-08-10T06:19:34.688Z,1
2022-08-10T06:20:36.048Z,0.9
2022-08-10T06:21:34.409Z,1.3
2022-08-10T06:22:35.371Z,1.1
2022-08-10T06:23:36.275Z,0.9
2022-08-10T06:24:43.157Z,0.9
2022-08-10T06:26:10.141Z,1.1
2022-08-10T06:26:41.915Z,1.3
2022-08-10T06:27:43.653Z,1.1
2022-08-10T06:29:45.107Z,1.2
2022-08-10T06:30:45.326Z,1
2022-08-10T06:31:50.548Z,1.3
2022-08-10T06:32:49.740Z,1.3
2022-08-10T06:33:48.930Z,2
2022-08-10T06:34:54.079Z,1.2
2022-08-10T06:35:55.109Z,1.3
2022-08-10T06:36:55.394Z,1.9
2022-08-10T06:37:53.976Z,1.4
2022-08-10T06:39:06.897Z,1.3
2022-08-10T06:39:57.503Z,1.3
2022-08-10T06:41:00.546Z,1.3
2022-08-10T06:43:01.671Z,1.2
2022-08-10T06:44:06.094Z,1.2
2022-08-10T06:45:12.138Z,1.3
2022-08-10T06:46:08.859Z,1.3
2022-08-10T06:47:10.419Z,1.4
2022-08-10T06:49:11.870Z,1.5
2022-08-10T06:50:44.662Z,1.3
2022-08-10T06:52:18.419Z,1.2
2022-08-10T06:54:24.907Z,1.4
2022-08-10T06:55:27.339Z,1.3
2022-08-10T06:56:36.186Z,1.5
2022-08-10T06:57:28.297Z,1.5
2022-08-10T07:00:34.193Z,1.5
2022-08-10T07:01:35.897Z,1.4
2022-08-10T07:02:46.968Z,1.4
2022-08-10T07:03:38.887Z,4.7
2022-08-10T07:05:50.582Z,1.7
2022-08-10T07:06:46.498Z,1.5
2022-08-10T07:07:45.976Z,1.2
2022-08-10T07:08:45.364Z,1.2
2022-08-10T07:09:47.623Z,1.3
2022-08-10T07:10:47.639Z,1.3
2022-08-10T07:11:48.974Z,1.4
2022-08-10T07:12:48.974Z,1.2
2022-08-10T07:14:16.647Z,1.2
2022-08-10T07:14:51.886Z,1.3
2022-08-10T07:15:59.988Z,1.2
2022-08-10T07:16:55.370Z,1.3
2022-08-10T07:17:54.449Z,1.1
2022-08-10T07:18:54.366Z,1.2
2022-08-10T07:19:59.277Z,1.2
2022-08-10T07:20:58.691Z,1.3
2022-08-10T07:21:58.205Z,1.2
2022-08-10T07:23:01.467Z,1.3
2022-08-10T07:24:03.689Z,1.4
2022-08-10T07:25:06.816Z,1.5
2022-08-10T07:26:07.298Z,1.4
2022-08-10T07:27:06.586Z,2.2
2022-08-10T07:28:06.069Z,1.1
2022-08-10T07:29:07.427Z,1
2022-08-10T07:30:10.601Z,1.1
2022-08-10T07:31:32.997Z,1
2022-08-10T07:32:14.714Z,0.9
2022-08-10T07:33:17.008Z,1
2022-08-10T07:34:28.564Z,1.2
2022-08-10T07:35:18.919Z,1.3
2022-08-10T07:36:22.107Z,1.1
2022-08-10T07:37:21.207Z,1.1
2022-08-10T07:38:30.313Z,1.2
2022-08-10T07:39:59.603Z,1.3
2022-08-10T07:40:26.788Z,1.1
2022-08-10T07:41:28.588Z,0.9
2022-08-10T07:42:31.328Z,1.8
2022-08-10T07:43:34.037Z,1
2022-08-10T07:44:33.328Z,7.2
2022-08-10T07:45:33.950Z,2.7
2022-08-10T07:46:35.385Z,1.4
2022-08-10T07:47:52.335Z,1.2
2022-08-10T07:49:42.157Z,1.7
2022-08-10T07:50:41.037Z,1
2022-08-10T07:51:41.555Z,0.9
2022-08-10T07:52:41.662Z,2.2
2022-08-10T07:54:48.129Z,1.2
2022-08-10T07:56:07.607Z,0.9
2022-08-10T07:56:50.086Z,1.1
2022-08-10T07:57:51.428Z,1
2022-08-10T07:58:54.093Z,1
2022-08-10T08:00:57.587Z,6.9
2022-08-10T08:01:57.340Z,2
2022-08-10T08:02:59.336Z,1.6
2022-08-10T08:04:05.397Z,1.4
2022-08-10T08:05:02.747Z,1.2
2022-08-10T08:06:05.299Z,1.1
2022-08-10T08:07:03.365Z,0.9
2022-08-10T08:08:05.722Z,0.9
2022-08-10T08:09:05.628Z,0.7
2022-08-10T08:10:07.008Z,1.1
2022-08-10T08:11:05.971Z,0.9
2022-08-10T08:12:09.027Z,0.9
2022-08-10T08:13:07.198Z,1
2022-08-10T08:14:08.838Z,0.8
2022-08-10T08:16:14.744Z,1
2022-08-10T08:16:15.614Z,0.9
2022-08-10T08:17:17.966Z,1
2022-08-10T08:18:24.436Z,0.9
2022-08-10T08:19:29.780Z,1.2
2022-08-10T08:20:20.036Z,0.8
2022-08-10T08:24:04.875Z,0.8
2022-08-10T08:24:05.895Z,0.6
2022-08-10T08:24:06.051Z,0.8
2022-08-10T08:24:34.389Z,0.9
2022-08-10T08:25:33.795Z,0.8
2022-08-10T08:26:33.591Z,1.3
2022-08-10T08:27:34.840Z,0.8
2022-08-10T08:28:34.554Z,1.5
2022-08-10T08:29:36.498Z,0.9
2022-08-10T08:30:35.364Z,0.6
2022-08-10T08:31:36.298Z,0.6
2022-08-10T08:33:42.060Z,0.8
2022-08-10T08:34:43.691Z,0.9
2022-08-10T08:35:42.965Z,0.8
2022-08-10T08:36:42.970Z,0.8
2022-08-10T08:38:32.243Z,0.9
2022-08-10T08:38:48.628Z,0.7
2022-08-10T08:39:47.763Z,0.7
2022-08-10T09:26:53.873Z,0.5
2022-08-10T09:36:23.155Z,0.5
2022-08-10T10:30:15.273Z,1.2
2022-08-10T10:35:29.657Z,1.5
2022-08-10T10:36:24.029Z,1.5
2022-08-10T10:38:01.464Z,1.2
2022-08-10T10:38:30.469Z,1.3
2022-08-10T10:39:26.551Z,1.1
2022-08-10T10:40:30.387Z,1
2022-08-10T11:00:11.438Z,0.6
2022-08-10T11:08:34.866Z,0.7
2022-08-10T11:26:29.239Z,0.6
2022-08-10T11:35:48.266Z,0.5
2022-08-10T11:49:18.038Z,0.5
2022-08-10T11:52:21.221Z,0.5
2022-08-10T11:55:25.545Z,0.4
2022-08-10T12:01:34.080Z,0.5
2022-08-10T12:03:40.147Z,0.6
2022-08-10T12:05:53.837Z,0.6
2022-08-10T12:07:00.340Z,0.7
2022-08-10T12:10:01.923Z,0.5
2022-08-10T12:10:03.728Z,0.6
2022-08-10T12:10:11.306Z,0.6
2022-08-10T12:10:50.522Z,0.5
2022-08-10T12:11:49.628Z,0.6
2022-08-10T12:15:03.354Z,0.6
2022-08-10T12:16:07.379Z,0.5
2022-08-10T12:21:22.742Z,0.5
2022-08-10T12:22:25.109Z,0.5
2022-08-10T12:30:40.933Z,0.7
2022-08-10T12:45:28.227Z,2.1
2022-08-10T12:51:36.150Z,0.9
2022-08-10T12:54:42.111Z,0.7
2022-08-10T12:55:42.620Z,0.7
2022-08-10T12:57:52.591Z,0.6
2022-08-10T12:58:59.422Z,0.8
2022-08-10T13:00:00.277Z,0.8
2022-08-10T13:01:15.554Z,0.8
2022-08-10T13:02:07.808Z,0.8
2022-08-10T13:03:06.259Z,0.7
2022-08-10T13:04:21.151Z,1
2022-08-10T13:06:10.759Z,0.7
2022-08-10T13:07:10.157Z,0.8
2022-08-10T13:08:27.207Z,1.1
2022-08-10T13:09:10.469Z,0.9
2022-08-10T13:12:37.274Z,0.5
2022-08-10T13:16:31.722Z,0.8
2022-08-10T13:17:39.282Z,0.7
2022-08-10T13:18:36.962Z,0.5
2022-08-10T13:19:56.070Z,0.6
2022-08-10T13:20:38.694Z,0.8
2022-08-10T13:21:38.808Z,0.5
2022-08-10T13:22:39.743Z,0.6
2022-08-10T13:25:45.285Z,0.7
2022-08-10T13:28:00.521Z,0.6
2022-08-10T13:30:55.139Z,1.1
2022-08-10T13:32:09.867Z,0.6
2022-08-10T13:32:54.447Z,0.6
2022-08-10T13:36:02.107Z,0.5
2022-08-10T13:37:02.759Z,0.5
2022-08-10T13:38:02.257Z,0.5
2022-08-10T13:39:02.063Z,0.5
2022-08-10T13:40:02.384Z,0.6
2022-08-10T13:41:02.075Z,0.6
2022-08-10T13:43:07.003Z,0.7
2022-08-10T13:44:05.881Z,0.8
2022-08-10T13:47:14.911Z,0.8
2022-08-10T13:49:16.053Z,0.9
2022-08-10T13:51:18.809Z,0.8
2022-08-10T13:53:23.362Z,0.7
2022-08-10T13:55:27.268Z,0.6
2022-08-10T13:56:26.136Z,0.6
2022-08-10T14:00:33.997Z,0.8
2022-08-10T14:01:38.547Z,0.7
2022-08-10T14:03:44.319Z,0.6
2022-08-10T14:08:00.912Z,0.7
2022-08-10T14:09:53.158Z,1
2022-08-10T14:11:09.291Z,0.8
2022-08-10T14:11:55.319Z,0.6
2022-08-10T14:12:57.574Z,0.8
2022-08-10T14:15:01.182Z,0.8
2022-08-10T14:17:04.059Z,0.7
2022-08-10T14:18:04.777Z,1
2022-08-10T14:20:14.034Z,1.1
2022-08-10T14:21:08.787Z,0.9
2022-08-10T14:22:08.706Z,1
2022-08-10T14:23:13.406Z,0.9
2022-08-10T14:25:14.056Z,0.7
2022-08-10T14:26:15.775Z,0.8
2022-08-10T14:27:18.149Z,0.9
2022-08-10T14:28:18.578Z,4
2022-08-10T14:29:18.842Z,3.8
2022-08-10T14:30:18.171Z,2.4
2022-08-10T14:31:22.169Z,1.2
2022-08-10T14:32:24.125Z,1.3
2022-08-10T14:33:24.459Z,2.1
2022-08-10T14:34:59.196Z,2.5
2022-08-10T14:36:20.717Z,3.8
2022-08-10T14:38:34.300Z,1.7
2022-08-10T14:40:41.796Z,1.8
2022-08-10T14:42:02.844Z,1.8
2022-08-10T14:46:58.258Z,2.1
2022-08-10T14:48:59.350Z,1.7
2022-08-10T14:50:05.081Z,2
2022-08-10T14:51:04.285Z,1.9
2022-08-10T14:52:06.648Z,1.7
2022-08-10T14:54:06.478Z,2.9
2022-08-10T14:55:19.337Z,2.6
2022-08-10T14:56:13.562Z,2.7
2022-08-10T14:57:16.047Z,2.7
2022-08-10T14:58:25.838Z,3.4
2022-08-10T14:59:20.007Z,4
2022-08-10T15:00:36.524Z,4.4
2022-08-10T15:01:22.948Z,4.7
2022-08-10T15:02:38.423Z,4.5
2022-08-10T15:04:29.076Z,2.6
2022-08-10T15:05:39.893Z,2.9
2022-08-10T15:06:36.864Z,3.2
2022-08-10T15:07:36.293Z,3.9
2022-08-10T15:08:36.686Z,2.4
2022-08-10T15:10:00.664Z,2.1
2022-08-10T15:10:41.158Z,2.5
2022-08-10T15:12:11.712Z,1.8
2022-08-10T15:12:43.967Z,2
2022-08-10T15:14:48.560Z,1.5
2022-08-10T15:16:09.439Z,3
2022-08-10T15:16:53.296Z,2.3
2022-08-10T15:17:53.803Z,2
2022-08-10T15:18:58.183Z,2.1
2022-08-10T15:21:03.654Z,1.8
2022-08-10T15:22:13.289Z,1.3
2022-08-10T15:25:18.022Z,2.6
2022-08-10T15:26:14.845Z,2.4
2022-08-10T15:27:16.699Z,1.9
2022-08-10T15:28:19.475Z,1.9
2022-08-10T15:29:24.242Z,1.9
2022-08-10T15:30:18.969Z,2
2022-08-10T15:31:24.301Z,2.1
2022-08-10T15:34:28.787Z,2.3
2022-08-10T15:35:28.950Z,2.5
2022-08-10T15:36:28.872Z,2.4
2022-08-10T15:37:40.252Z,2
2022-08-10T15:38:35.006Z,2.5
2022-08-10T15:40:50.530Z,2.7
2022-08-10T15:42:52.546Z,3.2
2022-08-10T15:43:48.246Z,2.1
2022-08-10T15:44:52.353Z,1.8
2022-08-10T15:46:58.844Z,2.2
2022-08-10T15:48:03.755Z,2.1
2022-08-10T15:49:07.884Z,3.1
2022-08-10T15:50:11.320Z,2.2
2022-08-10T15:52:39.906Z,2
2022-08-10T15:54:33.577Z,1.7
2022-08-10T15:57:36.199Z,3
2022-08-10T16:00:36.988Z,2.5
2022-08-10T16:06:02.565Z,2.4
2022-08-10T16:08:56.870Z,1.5
2022-08-10T16:10:23.583Z,1.9
2022-08-10T16:14:01.728Z,1.6
2022-08-10T16:16:06.376Z,2
2022-08-10T16:19:20.338Z,1.7
2022-08-10T16:20:13.573Z,1.4
2022-08-10T16:21:21.556Z,1.6
2022-08-10T16:22:34.348Z,1.5
2022-08-10T16:23:22.054Z,1.7
2022-08-10T16:24:20.249Z,1.6
2022-08-10T16:25:21.006Z,1.6
2022-08-10T16:29:28.790Z,1.7
2022-08-10T16:31:32.376Z,1.5
2022-08-10T16:32:33.182Z,1.3
2022-08-10T16:33:53.420Z,1.6
2022-08-10T16:34:38.142Z,1.4
2022-08-10T16:35:38.450Z,1.4
2022-08-10T16:37:57.139Z,1.6
2022-08-10T16:38:45.267Z,1.1
2022-08-10T16:40:45.033Z,1.4
2022-08-10T16:42:03.354Z,1.3
2022-08-10T16:42:49.951Z,1.2
2022-08-10T16:43:50.296Z,1.4
2022-08-10T16:45:54.589Z,1.8
2022-08-10T16:46:53.159Z,1.2
2022-08-10T16:47:56.038Z,1.1
2022-08-10T16:48:54.406Z,1.3
2022-08-10T16:49:56.359Z,1.3
2022-08-10T16:50:56.048Z,1.4
2022-08-10T16:51:56.461Z,2
2022-08-10T16:52:58.009Z,1.8
2022-08-10T16:56:03.761Z,1.2
2022-08-10T16:57:03.562Z,1.5
2022-08-10T16:58:04.285Z,1.7
2022-08-10T16:59:03.684Z,1.3
2022-08-10T17:00:04.502Z,1.3
2022-08-10T17:02:07.391Z,1.3
2022-08-10T17:04:11.959Z,1.4
2022-08-10T17:05:11.836Z,1.3
2022-08-10T17:06:12.395Z,1.4
2022-08-10T17:07:14.082Z,1.4
2022-08-10T17:11:21.174Z,1.6
2022-08-10T17:13:24.252Z,1.7
2022-08-10T17:15:28.778Z,1.9
2022-08-10T17:17:30.130Z,1.8
2022-08-10T17:18:36.680Z,1.7
2022-08-10T17:21:51.777Z,1.7
2022-08-10T17:22:41.937Z,1.7
2022-08-10T17:23:44.408Z,1.8
2022-08-10T17:24:51.061Z,1.6
2022-08-10T17:25:48.875Z,1.8
2022-08-10T17:26:50.756Z,1.7
2022-08-10T17:28:13.967Z,1.7
2022-08-10T17:28:56.839Z,1.8
2022-08-10T17:30:04.613Z,1.8
2022-08-10T17:33:12.510Z,1.7
2022-08-10T17:34:17.852Z,2.1
2022-08-10T17:35:10.077Z,1.7
2022-08-10T17:36:08.855Z,1.6
2022-08-10T17:37:15.508Z,2.2
2022-08-10T17:38:22.710Z,2.3
2022-08-10T17:39:20.748Z,2.1
2022-08-10T17:40:24.437Z,1.8
2022-08-10T17:41:27.005Z,2.1
2022-08-10T17:42:25.495Z,2.1
2022-08-10T17:43:46.558Z,2.2
2022-08-10T17:45:48.118Z,2.4
2022-08-10T17:46:38.812Z,3
2022-08-10T17:47:37.392Z,2.7
2022-08-10T17:48:39.944Z,2.7
2022-08-10T17:49:38.616Z,2.1
2022-08-10T17:50:41.711Z,2.6
2022-08-10T17:51:41.086Z,2.7
2022-08-10T17:52:41.104Z,3
2022-08-10T17:54:45.210Z,2.6
2022-08-10T17:55:47.371Z,2.7
2022-08-10T17:56:46.348Z,2.6
2022-08-10T17:57:46.350Z,2.7
2022-08-10T17:58:59.374Z,3.1
2022-08-10T17:59:48.619Z,2.7
2022-08-10T18:00:50.636Z,2.7
2022-08-10T18:01:58.560Z,2.4
2022-08-10T18:02:50.470Z,2.7
2022-08-10T18:03:59.405Z,2.8
2022-08-10T18:04:58.797Z,4
2022-08-10T18:06:00.646Z,2.8
2022-08-10T18:07:00.553Z,3.8
2022-08-10T18:08:00.865Z,3
2022-08-10T18:09:04.144Z,3
2022-08-10T18:10:03.835Z,3.8
2022-08-10T18:11:03.556Z,4
2022-08-10T18:12:18.494Z,5.1
2022-08-10T18:13:07.458Z,4.9
2022-08-10T18:14:08.371Z,4.8
2022-08-10T18:15:12.376Z,4.9
2022-08-10T18:16:13.212Z,6
2022-08-10T18:18:23.252Z,6.5
2022-08-10T18:19:16.902Z,5.7
2022-08-10T18:20:19.922Z,6.9
2022-08-10T18:21:20.404Z,7.8
2022-08-10T18:22:21.842Z,7.2
2022-08-10T18:23:27.574Z,6.9
2022-08-10T18:24:21.441Z,7
2022-08-10T18:25:34.676Z,7.1
2022-08-10T18:26:24.009Z,6
2022-08-10T18:27:53.870Z,6.4
2022-08-10T18:28:24.958Z,5.8
2022-08-10T18:29:28.039Z,5.4
2022-08-10T18:30:27.830Z,4.5
2022-08-10T18:31:28.858Z,5
2022-08-10T18:32:32.358Z,3.9
2022-08-10T18:33:34.816Z,4.3
2022-08-10T18:34:34.102Z,4.2
2022-08-10T18:35:34.799Z,4
2022-08-10T18:36:38.217Z,4.1
2022-08-10T18:37:37.595Z,4.6
2022-08-10T18:38:40.286Z,4
2022-08-10T18:39:40.789Z,4.3
2022-08-10T18:40:43.578Z,4.4
2022-08-10T18:42:00.575Z,3.4
2022-08-10T18:42:51.565Z,3.4
2022-08-10T18:44:54.755Z,3.6
2022-08-10T18:45:47.813Z,3.4
2022-08-10T18:46:55.589Z,3.1
2022-08-10T18:50:57.364Z,3.3
2022-08-10T18:52:00.748Z,3.1
2022-08-10T18:53:02.483Z,2.6
2022-08-10T19:10:51.134Z,3.3
2022-08-10T19:22:28.373Z,3.4
2022-08-10T19:51:30.003Z,4.8
2022-08-10T20:00:58.019Z,4.9
2022-08-10T20:01:55.668Z,4.6
2022-08-10T20:04:01.617Z,5.3
2022-08-10T20:11:46.338Z,5.6
2022-08-10T20:19:52.777Z,6.1
2022-08-10T20:27:04.831Z,6.1
2022-08-10T20:30:03.223Z,5.1
2022-08-10T20:32:10.722Z,5.7
2022-08-10T20:37:45.278Z,6.3
2022-08-10T21:00:08.079Z,4.9
2022-08-10T21:22:56.514Z,4.1
2022-08-10T21:23:57.645Z,4.6
2022-08-10T21:45:01.070Z,3.6
2022-08-10T21:47:01.658Z,4.1
2022-08-10T21:50:07.218Z,5.6
2022-08-10T21:51:08.786Z,5.6
2022-08-10T21:57:20.385Z,5
2022-08-10T22:04:27.908Z,4.4
2022-08-10T22:07:35.293Z,3.9
2022-08-10T22:12:49.674Z,3.1
2022-08-10T22:13:50.397Z,2.7
2022-08-10T22:14:52.649Z,2.7
2022-08-10T22:18:03.538Z,3
2022-08-10T22:19:02.610Z,3.3
2022-08-10T22:20:05.497Z,3.4
2022-08-10T22:22:27.046Z,2.9
2022-08-10T22:28:32.669Z,2.9
2022-08-10T22:43:11.186Z,3
2022-08-10T22:44:06.287Z,3
2022-08-10T22:45:10.373Z,2.9
2022-08-10T22:47:13.783Z,3.3
2022-08-10T22:48:11.811Z,3.3
2022-08-10T22:49:13.564Z,2.6
2022-08-10T22:50:17.967Z,2.6
2022-08-10T22:51:22.793Z,2.7
2022-08-10T22:52:23.199Z,3
2022-08-10T22:56:29.988Z,3.8
2022-08-10T22:57:30.116Z,2.7
2022-08-10T22:58:30.415Z,2.6
2022-08-10T22:59:32.268Z,2.8
2022-08-10T23:00:32.161Z,2.9
2022-08-10T23:02:35.584Z,3.2
2022-08-10T23:04:47.243Z,2.6
2022-08-10T23:06:50.326Z,2.9
2022-08-10T23:07:49.211Z,2.5
2022-08-10T23:10:55.885Z,2.8
2022-08-10T23:11:57.831Z,2.7
2022-08-10T23:14:07.888Z,2.3
2022-08-10T23:17:19.171Z,2.5
2022-08-10T23:18:18.155Z,2.6
2022-08-10T23:19:27.101Z,2.3
2022-08-10T23:20:21.545Z,2.1
2022-08-10T23:21:22.988Z,2
2022-08-10T23:22:31.697Z,2.6
2022-08-10T23:23:26.909Z,2.1
2022-08-10T23:25:30.389Z,2.3
2022-08-10T23:26:33.789Z,2.3
2022-08-10T23:27:38.894Z,2.6
2022-08-10T23:28:38.695Z,2.2
2022-08-10T23:29:37.175Z,2.4
2022-08-10T23:30:45.196Z,2.2
2022-08-10T23:31:59.149Z,2
2022-08-10T23:33:47.440Z,2
2022-08-10T23:36:31.003Z,2.1
2022-08-10T23:36:31.312Z,2
2022-08-10T23:36:53.393Z,2
2022-08-10T23:37:57.809Z,2.1
2022-08-10T23:38:59.542Z,2.1
2022-08-10T23:40:00.483Z,1.8
2022-08-10T23:43:06.756Z,1.9
2022-08-10T23:44:06.647Z,2
2022-08-10T23:46:10.244Z,2
2022-08-10T23:47:13.646Z,1.8
2022-08-10T23:48:12.026Z,2
2022-08-10T23:49:12.731Z,2.6
2022-08-10T23:50:15.402Z,2.1
2022-08-10T23:51:16.520Z,2
2022-08-10T23:54:22.487Z,2.5
2022-08-10T23:56:24.848Z,1.9
2022-08-10T23:57:27.219Z,1.9
2022-08-10T23:59:30.708Z,1.8
